Walnut Shade, Missouri
Current Conditions -  °F | °C
As of 11:15 PM on Sunday 21 Dec 2014 (Local Time) from KFWB Reporting Station
Overcast Overcast  
Wind Chill: 36°   Ceiling: 2300
Heat Index: 41°   Visibility: 10mi
Dew Point: 37°   Wind: 8mph
Humidity: 87%   Direction: 100°E
Pressure: 29.82"   Gusts: NA
Location:  36.73°N, 93.19°W
Report Text: KFWB 220515Z AUTO 10007KT 10SM OVC023 05/03 A2982 RMK AO2
Loading
Personal Weather Stations






























Interactive Weather Map New forecast layout! Learn more

10-Day Weather Forecast

Advertisements
Track Severe Weather on mobile